createdAt,value
2018-05-17T00:01:22.746Z,96065.53
2018-05-17T00:03:52.273Z,96068.90
2018-05-17T00:06:21.791Z,96066.79
2018-05-17T00:08:51.710Z,96067.80
2018-05-17T00:11:21.652Z,96056.31
2018-05-17T00:13:51.199Z,96051.07
2018-05-17T00:16:20.749Z,96052.02
2018-05-17T00:18:50.666Z,96047.31
2018-05-17T00:21:21.276Z,96044.97
2018-05-17T00:23:50.811Z,96042.41
2018-05-17T00:26:20.392Z,96036.57
2018-05-17T00:28:50.349Z,96038.13
2018-05-17T00:31:19.956Z,96040.45
2018-05-17T00:33:49.505Z,96045.14
2018-05-17T00:36:19.039Z,96048.13
2018-05-17T00:38:48.950Z,96045.41
2018-05-17T00:41:18.903Z,96034.50
2018-05-17T00:43:48.487Z,96037.80
2018-05-17T00:46:18.420Z,96032.53
2018-05-17T00:48:47.941Z,96028.23
2018-05-17T00:51:17.477Z,96026.88
2018-05-17T00:53:47.054Z,96026.52
2018-05-17T00:56:16.596Z,96032.73
2018-05-17T00:58:46.139Z,96033.93
2018-05-17T01:01:15.674Z,96032.55
2018-05-17T01:03:45.217Z,96038.41
2018-05-17T01:06:15.051Z,96041.11
2018-05-17T01:08:44.998Z,96047.56
2018-05-17T01:11:14.576Z,96050.87
2018-05-17T01:13:44.498Z,96057.09
2018-05-17T01:16:14.445Z,96057.30
2018-05-17T01:18:44.006Z,96063.17
2018-05-17T01:21:13.757Z,96057.33
2018-05-17T01:23:43.325Z,96060.23
2018-05-17T01:26:13.239Z,96056.09
2018-05-17T01:28:43.198Z,96053.19
2018-05-17T01:31:12.766Z,96052.63
2018-05-17T01:33:42.705Z,96058.70
2018-05-17T01:36:12.499Z,96059.09
2018-05-17T01:38:42.083Z,96056.54
2018-05-17T01:41:11.610Z,96051.02
2018-05-17T01:43:41.535Z,96042.24
2018-05-17T01:46:11.501Z,96050.42
2018-05-17T01:48:41.035Z,96049.45
2018-05-17T01:51:10.567Z,96047.08
2018-05-17T01:53:40.127Z,96051.39
2018-05-17T01:56:09.875Z,96051.79
2018-05-17T01:58:39.819Z,96057.25
2018-05-17T02:01:09.367Z,96053.53
2018-05-17T02:03:38.921Z,96052.77
2018-05-17T02:06:08.441Z,96052.39
2018-05-17T02:08:38.065Z,96055.72
2018-05-17T02:11:07.287Z,96056.70
2018-05-17T02:13:36.832Z,96054.36
2018-05-17T02:16:06.369Z,96054.38
2018-05-17T02:18:35.903Z,96047.76
2018-05-17T02:21:05.431Z,96049.55
2018-05-17T02:23:35.372Z,96051.47
2018-05-17T02:26:04.897Z,96048.37
2018-05-17T02:28:34.452Z,96053.59
2018-05-17T02:31:04.001Z,96051.27
2018-05-17T02:33:33.535Z,96053.80
2018-05-17T02:36:03.119Z,96050.66
2018-05-17T02:38:33.005Z,96040.75
2018-05-17T02:41:02.928Z,96039.17
2018-05-17T02:43:32.909Z,96036.83
2018-05-17T02:46:02.413Z,96039.18
2018-05-17T02:48:31.946Z,96032.58
2018-05-17T02:51:01.919Z,96035.11
2018-05-17T02:53:31.456Z,96041.35
2018-05-17T02:56:00.992Z,96039.22
2018-05-17T02:58:30.531Z,96042.72
2018-05-17T03:01:00.073Z,96037.42
2018-05-17T03:03:29.605Z,96044.28
2018-05-17T03:05:59.557Z,96046.21
2018-05-17T03:08:29.167Z,96037.08
2018-05-17T03:10:58.376Z,96044.31
2018-05-17T03:13:27.898Z,96040.59
2018-05-17T03:15:57.431Z,96043.30
2018-05-17T03:18:27.365Z,96045.45
2018-05-17T03:20:56.925Z,96039.63
2018-05-17T03:23:26.455Z,96044.28
2018-05-17T03:25:56.363Z,96045.63
2018-05-17T03:28:26.343Z,96046.77
2018-05-17T03:30:55.993Z,96039.36
2018-05-17T03:33:26.031Z,96046.76
2018-05-17T03:35:55.936Z,96053.41
2018-05-17T03:38:25.865Z,96050.48
2018-05-17T03:40:55.404Z,96051.65
2018-05-17T03:43:25.003Z,96053.02
2018-05-17T03:45:54.535Z,96046.38
2018-05-17T03:48:24.075Z,96049.28
2018-05-17T03:50:53.661Z,96048.88
2018-05-17T03:53:23.191Z,96055.10
2018-05-17T03:55:53.127Z,96049.84
2018-05-17T03:58:22.825Z,96052.95
2018-05-17T04:01:09.047Z,96052.16
2018-05-17T04:03:55.372Z,96042.03
2018-05-17T04:06:44.127Z,96043.20
2018-05-17T04:09:13.665Z,96051.05
2018-05-17T04:11:43.603Z,96051.45
2018-05-17T04:14:13.217Z,96052.05
2018-05-17T04:16:42.772Z,96061.02
2018-05-17T04:19:12.304Z,96062.20
2018-05-17T04:21:42.238Z,96064.13
2018-05-17T04:24:12.172Z,96065.68
2018-05-17T04:26:41.707Z,96062.56
2018-05-17T04:29:11.498Z,96065.66
2018-05-17T04:31:41.601Z,96080.31
2018-05-17T04:34:11.140Z,96076.76
2018-05-17T04:36:40.660Z,96077.52
2018-05-17T04:39:10.196Z,96077.14
2018-05-17T04:41:40.120Z,96074.19
2018-05-17T04:44:10.040Z,96070.90
2018-05-17T04:46:39.960Z,96071.88
2018-05-17T04:49:09.504Z,96071.66
2018-05-17T04:51:39.040Z,96075.77
2018-05-17T04:54:08.648Z,96075.58
2018-05-17T04:56:38.166Z,96074.00
2018-05-17T04:59:08.173Z,96079.66
2018-05-17T05:01:37.732Z,96082.20
2018-05-17T05:04:07.280Z,96081.59
2018-05-17T05:06:36.902Z,96079.64
2018-05-17T05:09:07.466Z,96074.02
2018-05-17T05:11:37.006Z,96072.67
2018-05-17T05:14:06.523Z,96069.16
2018-05-17T05:16:36.076Z,96070.50
2018-05-17T05:19:05.666Z,96067.58
2018-05-17T05:21:35.593Z,96066.43
2018-05-17T05:24:05.526Z,96068.98
2018-05-17T05:26:35.049Z,96068.97
2018-05-17T05:29:04.578Z,96077.33
2018-05-17T05:31:34.187Z,96090.99
2018-05-17T05:34:04.257Z,96092.16
2018-05-17T05:36:33.808Z,96094.87
2018-05-17T05:39:03.106Z,96108.32
2018-05-17T05:41:32.635Z,96114.00
2018-05-17T05:44:02.192Z,96110.72
2018-05-17T05:46:31.744Z,96110.32
2018-05-17T05:49:01.278Z,96107.21
2018-05-17T05:51:30.836Z,96098.81
2018-05-17T05:54:00.353Z,96095.11
2018-05-17T05:56:29.892Z,96086.69
2018-05-17T05:59:00.572Z,96090.00
2018-05-17T06:01:30.108Z,96091.97
2018-05-17T06:03:59.660Z,96094.50
2018-05-17T06:06:29.210Z,96100.35
2018-05-17T06:08:58.774Z,96095.69
2018-05-17T06:11:28.346Z,96098.80
2018-05-17T06:13:57.902Z,96102.47
2018-05-17T06:16:27.430Z,96101.67
2018-05-17T06:18:57.359Z,96100.94
2018-05-17T06:21:26.972Z,96100.92
2018-05-17T06:23:56.532Z,96105.41
2018-05-17T06:26:26.067Z,96099.37
2018-05-17T06:28:55.598Z,96103.64
2018-05-17T06:31:25.728Z,96099.56
2018-05-17T06:33:55.746Z,96102.69
2018-05-17T06:36:25.736Z,96099.33
2018-05-17T06:38:55.279Z,96101.27
2018-05-17T06:41:25.213Z,96095.86
2018-05-17T06:43:54.814Z,96100.52
2018-05-17T06:46:25.284Z,96103.45
2018-05-17T06:48:54.807Z,96104.59
2018-05-17T06:51:24.363Z,96109.49
2018-05-17T06:53:53.896Z,96113.22
2018-05-17T06:56:23.698Z,96119.83
2018-05-17T06:58:53.314Z,96128.99
2018-05-17T07:01:22.848Z,96136.95
2018-05-17T07:03:52.496Z,96139.65
2018-05-17T07:06:22.016Z,96131.25
2018-05-17T07:08:51.550Z,96138.24
2018-05-17T07:11:21.099Z,96142.36
2018-05-17T07:13:51.017Z,96151.09
2018-05-17T07:16:20.956Z,96154.22
2018-05-17T07:18:50.520Z,96158.97
2018-05-17T07:21:20.139Z,96159.72
2018-05-17T07:23:50.089Z,96156.61
2018-05-17T07:26:19.636Z,96156.56
2018-05-17T07:28:49.166Z,96153.17
2018-05-17T07:31:19.123Z,96150.97
2018-05-17T07:33:49.234Z,96147.16
2018-05-17T07:36:18.764Z,96146.81
2018-05-17T07:38:48.313Z,96144.52
2018-05-17T07:41:18.257Z,96143.97
2018-05-17T07:43:47.778Z,96148.27
2018-05-17T07:46:17.346Z,96150.45
2018-05-17T07:48:47.271Z,96144.22
2018-05-17T07:51:17.236Z,96138.74
2018-05-17T07:53:46.844Z,96139.19
2018-05-17T07:56:16.710Z,96138.20
2018-05-17T07:58:46.630Z,96140.58
2018-05-17T08:01:16.538Z,96143.09
2018-05-17T08:03:46.485Z,96142.67
2018-05-17T08:06:16.049Z,96145.41
2018-05-17T08:08:45.582Z,96149.50
2018-05-17T08:11:15.106Z,96149.88
2018-05-17T08:13:44.631Z,96144.77
2018-05-17T08:16:14.359Z,96145.34
2018-05-17T08:18:43.923Z,96156.83
2018-05-17T08:21:13.480Z,96152.91
2018-05-17T08:23:43.073Z,96158.52
2018-05-17T08:26:12.585Z,96165.55
2018-05-17T08:28:42.291Z,96162.64
2018-05-17T08:31:11.800Z,96166.33
2018-05-17T08:33:40.665Z,96173.20
2018-05-17T08:36:10.272Z,96174.59
2018-05-17T08:38:40.007Z,96176.50
2018-05-17T08:41:09.535Z,96177.67
2018-05-17T08:43:39.472Z,96187.05
2018-05-17T08:46:09.009Z,96179.76
2018-05-17T08:48:38.562Z,96184.24
2018-05-17T08:51:08.084Z,96186.53
2018-05-17T08:53:38.023Z,96188.28
2018-05-17T08:56:07.552Z,96191.41
2018-05-17T08:58:37.085Z,96190.09
2018-05-17T09:01:06.635Z,96196.00
2018-05-17T09:03:36.151Z,96199.88
2018-05-17T09:06:05.956Z,96196.13
2018-05-17T09:08:35.411Z,96190.59
2018-05-17T09:11:04.969Z,96186.84
2018-05-17T09:13:34.721Z,96190.78
2018-05-17T09:16:04.429Z,96193.67
2018-05-17T09:18:33.981Z,96188.98
2018-05-17T09:21:03.925Z,96188.55
2018-05-17T09:23:33.493Z,96190.30
2018-05-17T09:26:03.435Z,96195.20
2018-05-17T09:28:32.947Z,96194.03
2018-05-17T09:31:02.469Z,96196.76
2018-05-17T09:33:32.067Z,96193.64
2018-05-17T09:36:01.613Z,96190.30
2018-05-17T09:38:31.141Z,96193.14
2018-05-17T09:41:01.060Z,96200.73
2018-05-17T09:43:30.990Z,96193.42
2018-05-17T09:46:00.515Z,96190.57
2018-05-17T09:48:30.074Z,96197.44
2018-05-17T09:50:59.731Z,96197.22
2018-05-17T09:53:29.259Z,96204.23
2018-05-17T09:55:58.782Z,96201.27
2018-05-17T09:58:28.364Z,96210.17
2018-05-17T10:00:57.916Z,96210.75
2018-05-17T10:03:27.843Z,96206.55
2018-05-17T10:05:57.783Z,96212.28
2018-05-17T10:08:27.333Z,96203.53
2018-05-17T10:10:56.860Z,96210.77
2018-05-17T10:13:26.769Z,96217.01
2018-05-17T10:15:56.297Z,96212.70
2018-05-17T10:18:26.223Z,96217.50
2018-05-17T10:20:55.421Z,96220.09
2018-05-17T10:23:24.946Z,96220.81
2018-05-17T10:25:54.467Z,96219.23
2018-05-17T10:28:24.009Z,96219.94
2018-05-17T10:30:53.561Z,96224.78
2018-05-17T10:33:23.119Z,96225.22
2018-05-17T10:35:52.677Z,96224.98
2018-05-17T10:38:22.204Z,96224.39
2018-05-17T10:40:51.746Z,96225.52
2018-05-17T10:43:21.671Z,96221.65
2018-05-17T10:45:51.590Z,96231.27
2018-05-17T10:48:21.595Z,96233.54
2018-05-17T10:50:51.530Z,96231.80
2018-05-17T10:53:21.461Z,96228.23
2018-05-17T10:55:51.069Z,96234.36
2018-05-17T10:58:20.591Z,96232.01
2018-05-17T11:00:49.879Z,96234.64
2018-05-17T11:03:19.417Z,96234.69
2018-05-17T11:05:48.947Z,96231.88
2018-05-17T11:08:18.488Z,96239.43
2018-05-17T11:10:48.019Z,96237.47
2018-05-17T11:13:17.549Z,96237.83
2018-05-17T11:15:46.913Z,96245.90
2018-05-17T11:18:16.484Z,96244.55
2018-05-17T11:20:46.459Z,96241.91
2018-05-17T11:23:16.019Z,96241.35
2018-05-17T11:25:45.947Z,96246.65
2018-05-17T11:28:15.467Z,96241.55
2018-05-17T11:30:45.011Z,96244.13
2018-05-17T11:33:14.534Z,96244.03
2018-05-17T11:35:44.049Z,96246.48
2018-05-17T11:38:13.637Z,96235.61
2018-05-17T11:40:43.231Z,96242.33
2018-05-17T11:43:12.753Z,96239.55
2018-05-17T11:45:42.278Z,96240.78
2018-05-17T11:48:12.208Z,96240.78
2018-05-17T11:50:41.730Z,96229.14
2018-05-17T11:53:11.255Z,96228.95
2018-05-17T11:55:40.804Z,96225.84
2018-05-17T11:58:10.717Z,96218.20
2018-05-17T12:00:40.239Z,96221.67
2018-05-17T12:03:09.761Z,96219.83
2018-05-17T12:05:39.943Z,96228.59
2018-05-17T12:08:09.473Z,96238.33
2018-05-17T12:10:39.171Z,96236.66
2018-05-17T12:13:09.087Z,96235.66
2018-05-17T12:15:39.025Z,96233.31
2018-05-17T12:18:08.555Z,96231.61
2018-05-17T12:20:38.095Z,96230.48
2018-05-17T12:23:07.642Z,96231.32
2018-05-17T12:25:37.326Z,96226.30
2018-05-17T12:28:06.859Z,96230.09
2018-05-17T12:30:36.581Z,96222.09
2018-05-17T12:33:06.106Z,96220.31
2018-05-17T12:35:35.647Z,96223.10
2018-05-17T12:38:05.657Z,96229.53
2018-05-17T12:40:35.177Z,96222.77
2018-05-17T12:43:04.713Z,96223.41
2018-05-17T12:45:34.233Z,96221.59
2018-05-17T12:48:03.779Z,96223.61
2018-05-17T12:50:33.342Z,96222.09
2018-05-17T12:53:02.860Z,96224.19
2018-05-17T12:55:32.380Z,96225.56
2018-05-17T12:58:01.964Z,96220.17
2018-05-17T13:00:32.066Z,96225.48
2018-05-17T13:03:01.984Z,96212.89
2018-05-17T13:05:31.503Z,96215.84
2018-05-17T13:08:01.005Z,96216.43
2018-05-17T13:10:30.597Z,96212.55
2018-05-17T13:13:00.182Z,96214.27
2018-05-17T13:15:29.863Z,96215.63
2018-05-17T13:17:59.779Z,96214.31
2018-05-17T13:20:29.311Z,96217.53
2018-05-17T13:22:58.821Z,96221.16
2018-05-17T13:25:28.353Z,96218.28
2018-05-17T13:27:58.073Z,96216.42
2018-05-17T13:30:27.643Z,96210.78
2018-05-17T13:32:57.160Z,96215.13
2018-05-17T13:35:27.120Z,96218.98
2018-05-17T13:37:56.875Z,96213.22
2018-05-17T13:40:26.487Z,96218.98
2018-05-17T13:42:56.055Z,96209.02
2018-05-17T13:45:25.643Z,96211.56
2018-05-17T13:47:55.186Z,96204.84
2018-05-17T13:50:24.947Z,96206.13
2018-05-17T13:52:54.453Z,96206.38
2018-05-17T13:55:23.991Z,96216.45
2018-05-17T13:57:53.511Z,96215.11
2018-05-17T14:00:23.037Z,96215.22
2018-05-17T14:02:52.569Z,96217.19
2018-05-17T14:05:22.666Z,96216.08
2018-05-17T14:07:52.184Z,96221.87
2018-05-17T14:10:22.101Z,96220.31
2018-05-17T14:12:52.039Z,96222.72
2018-05-17T14:15:21.583Z,96214.35
2018-05-17T14:17:51.310Z,96211.95
2018-05-17T14:20:20.852Z,96215.76
2018-05-17T14:22:50.800Z,96219.44
2018-05-17T14:25:20.394Z,96221.34
2018-05-17T14:27:49.990Z,96216.61
2018-05-17T14:30:19.494Z,96201.53
2018-05-17T14:32:49.025Z,96197.16
2018-05-17T14:35:18.566Z,96195.92
2018-05-17T14:37:48.107Z,96206.88
2018-05-17T14:40:18.902Z,96201.68
2018-05-17T14:42:48.425Z,96205.85
2018-05-17T14:45:17.968Z,96213.72
2018-05-17T14:47:47.664Z,96220.31
2018-05-17T14:50:17.567Z,96222.87
2018-05-17T14:52:47.535Z,96228.52
2018-05-17T14:55:17.085Z,96225.81
2018-05-17T14:57:46.796Z,96229.63
2018-05-17T15:00:16.760Z,96239.19
2018-05-17T15:02:46.471Z,96239.80
2018-05-17T15:05:16.014Z,96243.12
2018-05-17T15:07:45.546Z,96247.14
2018-05-17T15:10:15.474Z,96242.53
2018-05-17T15:12:44.985Z,96240.84
2018-05-17T15:15:14.513Z,96239.86
2018-05-17T15:17:44.122Z,96233.55
2018-05-17T15:20:13.644Z,96231.34
2018-05-17T15:22:43.163Z,96227.71
2018-05-17T15:25:12.698Z,96224.53
2018-05-17T15:27:42.641Z,96223.92
2018-05-17T15:30:12.785Z,96229.17
2018-05-17T15:32:42.352Z,96230.06
2018-05-17T15:35:12.288Z,96226.28
2018-05-17T15:37:41.942Z,96225.41
2018-05-17T15:40:11.206Z,96220.23
2018-05-17T15:42:40.846Z,96211.44
2018-05-17T15:45:10.400Z,96206.66
2018-05-17T15:47:40.600Z,96212.02
2018-05-17T15:50:10.528Z,96209.12
2018-05-17T15:52:40.448Z,96213.41
2018-05-17T15:55:09.999Z,96212.67
2018-05-17T15:57:39.532Z,96219.86
2018-05-17T16:00:09.264Z,96214.02
2018-05-17T16:02:39.184Z,96218.70
2018-05-17T16:05:09.107Z,96219.47
2018-05-17T16:07:38.624Z,96221.40
2018-05-17T16:10:08.159Z,96223.30
2018-05-17T16:12:37.472Z,96216.61
2018-05-17T16:15:07.154Z,96221.89
2018-05-17T16:17:36.744Z,96222.83
2018-05-17T16:20:06.278Z,96217.77
2018-05-17T16:22:35.805Z,96225.23
2018-05-17T16:25:05.063Z,96225.77
2018-05-17T16:27:34.594Z,96232.28
2018-05-17T16:30:03.895Z,96233.53
2018-05-17T16:32:33.422Z,96233.02
2018-05-17T16:35:02.977Z,96235.33
2018-05-17T16:37:32.242Z,96234.13
2018-05-17T16:40:01.810Z,96239.05
2018-05-17T16:42:31.334Z,96235.92
2018-05-17T16:45:00.850Z,96241.15
2018-05-17T16:47:30.389Z,96241.08
2018-05-17T16:49:59.921Z,96240.70
2018-05-17T16:52:29.627Z,96241.69
2018-05-17T16:54:59.334Z,96245.12
2018-05-17T16:57:28.867Z,96248.34
2018-05-17T16:59:58.982Z,96258.95
2018-05-17T17:02:28.508Z,96248.64
2018-05-17T17:04:58.127Z,96257.61
2018-05-17T17:07:28.185Z,96260.58
2018-05-17T17:09:57.811Z,96257.75
2018-05-17T17:12:27.366Z,96250.58
2018-05-17T17:14:56.902Z,96255.97
2018-05-17T17:17:26.445Z,96252.17
2018-05-17T17:19:56.023Z,96245.64
2018-05-17T17:22:25.561Z,96246.72
2018-05-17T17:24:55.140Z,96245.11
2018-05-17T17:27:24.703Z,96244.56
2018-05-17T17:29:54.659Z,96241.52
2018-05-17T17:32:24.223Z,96246.65
2018-05-17T17:34:54.174Z,96247.32
2018-05-17T17:37:23.721Z,96245.98
2018-05-17T17:39:53.272Z,96248.16
2018-05-17T17:42:23.246Z,96243.69
2018-05-17T17:44:52.835Z,96249.55
2018-05-17T17:47:22.360Z,96257.55
2018-05-17T17:49:51.901Z,96253.17
2018-05-17T17:52:21.936Z,96253.61
2018-05-17T17:54:51.470Z,96261.47
2018-05-17T17:57:21.012Z,96263.14
2018-05-17T17:59:50.563Z,96266.92
2018-05-17T18:02:20.310Z,96271.27
2018-05-17T18:04:49.839Z,96266.52
2018-05-17T18:07:19.411Z,96269.99
2018-05-17T18:09:48.958Z,96268.20
2018-05-17T18:12:18.243Z,96268.23
2018-05-17T18:14:47.794Z,96267.80
2018-05-17T18:17:17.313Z,96271.22
2018-05-17T18:19:46.858Z,96276.70
2018-05-17T18:22:16.393Z,96271.19
2018-05-17T18:24:46.369Z,96271.88
2018-05-17T18:27:16.078Z,96269.25
2018-05-17T18:29:45.593Z,96271.95
2018-05-17T18:32:15.181Z,96276.83
2018-05-17T18:34:44.762Z,96280.26
2018-05-17T18:37:14.338Z,96278.71
2018-05-17T18:39:44.277Z,96281.31
2018-05-17T18:42:14.210Z,96288.61
2018-05-17T18:44:43.772Z,96290.45
2018-05-17T18:47:13.340Z,96292.53
2018-05-17T18:49:42.903Z,96291.98
2018-05-17T18:52:12.829Z,96293.12
2018-05-17T18:54:42.820Z,96285.98
2018-05-17T18:57:12.378Z,96295.44
2018-05-17T18:59:41.596Z,96298.02
2018-05-17T19:02:11.164Z,96299.20
2018-05-17T19:04:40.841Z,96302.11
2018-05-17T19:07:11.190Z,96307.61
2018-05-17T19:09:41.833Z,96308.94
2018-05-17T19:12:11.427Z,96308.00
2018-05-17T19:14:40.967Z,96311.05
2018-05-17T19:17:10.514Z,96312.47
2018-05-17T19:19:40.082Z,96315.64
2018-05-17T19:22:09.625Z,96315.25
2018-05-17T19:24:39.175Z,96318.84
2018-05-17T19:27:08.712Z,96321.84
2018-05-17T19:29:38.259Z,96328.25
2018-05-17T19:32:07.825Z,96324.00
2018-05-17T19:34:37.421Z,96333.09
2018-05-17T19:37:07.027Z,96331.33
2018-05-17T19:39:36.697Z,96335.64
2018-05-17T19:42:06.255Z,96338.05
2018-05-17T19:44:35.861Z,96342.09
2018-05-17T19:47:05.443Z,96346.20
2018-05-17T19:49:35.358Z,96345.75
2018-05-17T19:52:04.899Z,96352.55
2018-05-17T19:54:34.447Z,96354.84
2018-05-17T20:15:04.108Z,96360.11
2018-05-17T20:17:33.735Z,96365.46
2018-05-17T20:20:03.330Z,96363.48
2018-05-17T20:22:33.269Z,96359.92
2018-05-17T20:25:02.790Z,96370.47
2018-05-17T20:27:32.369Z,96360.06
2018-05-17T20:30:01.979Z,96368.22
2018-05-17T20:32:31.522Z,96367.67
2018-05-17T20:35:01.071Z,96366.37
2018-05-17T20:37:30.601Z,96370.09
2018-05-17T20:39:59.954Z,96364.50
2018-05-17T20:42:29.512Z,96366.86
2018-05-17T20:44:59.241Z,96375.09
2018-05-17T20:47:28.807Z,96369.94
2018-05-17T20:49:58.341Z,96368.11
2018-05-17T20:52:27.870Z,96365.92
2018-05-17T20:54:57.417Z,96365.00
2018-05-17T20:57:27.340Z,96369.22
2018-05-17T20:59:56.651Z,96370.58
2018-05-17T21:02:26.199Z,96362.33
2018-05-17T21:04:56.057Z,96362.31
2018-05-17T21:07:26.301Z,96359.77
2018-05-17T21:09:55.868Z,96359.65
2018-05-17T21:12:25.776Z,96361.75
2018-05-17T21:14:55.721Z,96365.08
2018-05-17T21:17:24.967Z,96361.75
2018-05-17T21:19:54.505Z,96358.02
2018-05-17T21:22:24.453Z,96363.48
2018-05-17T21:24:53.983Z,96358.08
2018-05-17T21:27:23.526Z,96359.03
2018-05-17T21:29:53.081Z,96360.20
2018-05-17T21:32:22.607Z,96354.73
2018-05-17T21:34:52.153Z,96349.19
2018-05-17T21:37:22.081Z,96337.88
2018-05-17T21:39:52.264Z,96344.88
2018-05-17T21:42:21.951Z,96338.49
2018-05-17T21:47:25.537Z,96342.87
2018-05-17T21:49:55.104Z,96350.83
2018-05-17T21:52:24.697Z,96341.02
2018-05-17T21:54:54.240Z,96336.88
2018-05-17T21:57:24.207Z,96334.45
2018-05-17T21:59:53.737Z,96332.79
2018-05-17T22:02:23.325Z,96328.95
2018-05-17T22:04:52.842Z,96335.58
2018-05-17T22:07:22.556Z,96336.80
2018-05-17T22:09:52.102Z,96337.66
2018-05-17T22:12:22.052Z,96340.94
2018-05-17T22:14:51.800Z,96333.33
2018-05-17T22:17:21.343Z,96330.90
2018-05-17T22:19:51.311Z,96331.61
2018-05-17T22:22:20.835Z,96336.09
2018-05-17T22:24:50.411Z,96338.00
2018-05-17T22:27:19.980Z,96337.39
2018-05-17T22:29:49.504Z,96339.56
2018-05-17T22:32:19.047Z,96338.88
2018-05-17T22:34:48.758Z,96338.98
2018-05-17T22:37:18.290Z,96338.34
2018-05-17T22:39:48.878Z,96339.20
2018-05-17T22:42:18.406Z,96336.81
2018-05-17T22:44:47.936Z,96343.03
2018-05-17T22:47:17.861Z,96345.79
2018-05-17T22:49:47.585Z,96344.30
2018-05-17T22:52:17.133Z,96341.75
2018-05-17T22:54:46.672Z,96345.62
2018-05-17T22:57:15.694Z,96339.91
2018-05-17T23:03:21.505Z,96337.66
2018-05-17T23:05:50.753Z,96335.73
2018-05-17T23:08:20.379Z,96338.18
2018-05-17T23:10:49.895Z,96338.59
2018-05-17T23:13:19.499Z,96337.47
2018-05-17T23:19:24.779Z,96336.47
2018-05-17T23:21:54.327Z,96329.30
2018-05-17T23:24:23.853Z,96333.67
2018-05-17T23:26:53.417Z,96332.16
2018-05-17T23:29:23.045Z,96330.27
2018-05-17T23:31:52.559Z,96330.02
2018-05-17T23:34:22.089Z,96331.16
2018-05-17T23:36:52.012Z,96330.75
2018-05-17T23:39:21.530Z,96326.28
2018-05-17T23:41:51.053Z,96329.17
2018-05-17T23:44:20.584Z,96325.78
2018-05-17T23:46:50.932Z,96324.50
2018-05-17T23:49:20.924Z,96321.42
2018-05-17T23:51:50.514Z,96322.09
2018-05-17T23:54:20.052Z,96320.34
2018-05-17T23:56:49.622Z,96320.77
2018-05-17T23:59:19.206Z,96320.79
